sensor_id;sensor_type;location;lat;lon;timestamp;temperature;humidity
35299;DHT22;21415;48.054;16.646;2022-08-19T00:02:22;30.00;33.60
35299;DHT22;21415;48.054;16.646;2022-08-19T00:04:47;30.00;33.60
35299;DHT22;21415;48.054;16.646;2022-08-19T00:07:18;29.90;33.60
35299;DHT22;21415;48.054;16.646;2022-08-19T00:09:43;29.90;33.50
35299;DHT22;21415;48.054;16.646;2022-08-19T00:12:09;29.90;33.50
35299;DHT22;21415;48.054;16.646;2022-08-19T00:14:36;29.90;33.60
35299;DHT22;21415;48.054;16.646;2022-08-19T00:17:02;29.90;33.70
35299;DHT22;21415;48.054;16.646;2022-08-19T00:19:28;29.90;33.60
35299;DHT22;21415;48.054;16.646;2022-08-19T00:21:54;29.90;33.70
35299;DHT22;21415;48.054;16.646;2022-08-19T00:24:21;29.80;33.60
35299;DHT22;21415;48.054;16.646;2022-08-19T00:26:47;29.80;33.60
35299;DHT22;21415;48.054;16.646;2022-08-19T00:29:14;29.80;33.70
35299;DHT22;21415;48.054;16.646;2022-08-19T00:31:40;29.80;33.70
35299;DHT22;21415;48.054;16.646;2022-08-19T00:34:08;29.80;33.70
35299;DHT22;21415;48.054;16.646;2022-08-19T00:36:33;29.80;33.70
35299;DHT22;21415;48.054;16.646;2022-08-19T00:38:59;29.80;33.80
35299;DHT22;21415;48.054;16.646;2022-08-19T00:41:25;29.80;33.80
35299;DHT22;21415;48.054;16.646;2022-08-19T00:46:23;29.70;33.70
35299;DHT22;21415;48.054;16.646;2022-08-19T00:48:48;29.70;33.70
35299;DHT22;21415;48.054;16.646;2022-08-19T00:51:14;29.70;33.70
35299;DHT22;21415;48.054;16.646;2022-08-19T00:53:40;29.70;33.70
35299;DHT22;21415;48.054;16.646;2022-08-19T00:56:05;29.70;33.80
35299;DHT22;21415;48.054;16.646;2022-08-19T00:58:32;29.70;33.90
35299;DHT22;21415;48.054;16.646;2022-08-19T01:00:59;29.70;33.90
35299;DHT22;21415;48.054;16.646;2022-08-19T01:03:26;29.70;33.90
35299;DHT22;21415;48.054;16.646;2022-08-19T01:05:52;29.70;34.00
35299;DHT22;21415;48.054;16.646;2022-08-19T01:08:19;29.70;34.00
35299;DHT22;21415;48.054;16.646;2022-08-19T01:10:50;29.70;34.00
35299;DHT22;21415;48.054;16.646;2022-08-19T01:13:19;29.70;34.10
35299;DHT22;21415;48.054;16.646;2022-08-19T01:15:46;29.60;34.00
35299;DHT22;21415;48.054;16.646;2022-08-19T01:18:15;29.60;34.10
35299;DHT22;21415;48.054;16.646;2022-08-19T01:20:42;29.60;34.10
35299;DHT22;21415;48.054;16.646;2022-08-19T01:23:08;29.70;34.20
35299;DHT22;21415;48.054;16.646;2022-08-19T01:25:48;29.60;34.10
35299;DHT22;21415;48.054;16.646;2022-08-19T01:28:21;29.60;34.10
35299;DHT22;21415;48.054;16.646;2022-08-19T01:30:47;29.60;34.20
35299;DHT22;21415;48.054;16.646;2022-08-19T01:33:13;29.60;34.10
35299;DHT22;21415;48.054;16.646;2022-08-19T01:35:40;29.60;34.10
35299;DHT22;21415;48.054;16.646;2022-08-19T01:38:07;29.60;34.10
35299;DHT22;21415;48.054;16.646;2022-08-19T01:40:34;29.60;34.10
35299;DHT22;21415;48.054;16.646;2022-08-19T01:43:01;29.60;34.20
35299;DHT22;21415;48.054;16.646;2022-08-19T01:45:28;29.60;34.30
35299;DHT22;21415;48.054;16.646;2022-08-19T01:47:54;29.60;34.30
35299;DHT22;21415;48.054;16.646;2022-08-19T01:50:20;29.60;34.40
35299;DHT22;21415;48.054;16.646;2022-08-19T01:52:46;29.50;34.40
35299;DHT22;21415;48.054;16.646;2022-08-19T01:55:13;29.50;34.40
35299;DHT22;21415;48.054;16.646;2022-08-19T01:57:40;29.50;34.50
35299;DHT22;21415;48.054;16.646;2022-08-19T02:00:08;29.40;34.40
35299;DHT22;21415;48.054;16.646;2022-08-19T02:02:37;29.40;34.60
35299;DHT22;21415;48.054;16.646;2022-08-19T02:05:03;29.30;34.50
35299;DHT22;21415;48.054;16.646;2022-08-19T02:07:28;29.20;34.60
35299;DHT22;21415;48.054;16.646;2022-08-19T02:09:54;29.20;34.60
35299;DHT22;21415;48.054;16.646;2022-08-19T02:12:20;29.20;35.00
35299;DHT22;21415;48.054;16.646;2022-08-19T02:14:46;29.10;34.90
35299;DHT22;21415;48.054;16.646;2022-08-19T02:17:12;29.10;34.80
35299;DHT22;21415;48.054;16.646;2022-08-19T02:19:38;29.00;34.80
35299;DHT22;21415;48.054;16.646;2022-08-19T02:22:03;29.00;34.80
35299;DHT22;21415;48.054;16.646;2022-08-19T02:24:29;28.90;34.80
35299;DHT22;21415;48.054;16.646;2022-08-19T02:26:55;28.90;34.90
35299;DHT22;21415;48.054;16.646;2022-08-19T02:29:21;28.80;34.90
35299;DHT22;21415;48.054;16.646;2022-08-19T02:31:46;28.80;35.00
35299;DHT22;21415;48.054;16.646;2022-08-19T02:34:12;28.80;35.50
35299;DHT22;21415;48.054;16.646;2022-08-19T02:36:38;28.70;35.00
35299;DHT22;21415;48.054;16.646;2022-08-19T02:39:03;28.70;35.00
35299;DHT22;21415;48.054;16.646;2022-08-19T02:41:30;28.70;35.10
35299;DHT22;21415;48.054;16.646;2022-08-19T02:43:57;28.60;35.20
35299;DHT22;21415;48.054;16.646;2022-08-19T02:46:25;28.60;35.40
35299;DHT22;21415;48.054;16.646;2022-08-19T02:48:53;28.50;35.20
35299;DHT22;21415;48.054;16.646;2022-08-19T02:51:20;28.50;35.20
35299;DHT22;21415;48.054;16.646;2022-08-19T02:53:46;28.50;35.60
35299;DHT22;21415;48.054;16.646;2022-08-19T02:56:11;28.50;35.40
35299;DHT22;21415;48.054;16.646;2022-08-19T02:58:37;28.40;35.40
35299;DHT22;21415;48.054;16.646;2022-08-19T03:01:03;28.40;35.40
35299;DHT22;21415;48.054;16.646;2022-08-19T03:03:29;28.40;35.40
35299;DHT22;21415;48.054;16.646;2022-08-19T03:06:08;28.30;35.80
35299;DHT22;21415;48.054;16.646;2022-08-19T03:08:34;28.30;35.60
35299;DHT22;21415;48.054;16.646;2022-08-19T03:11:00;28.30;35.70
35299;DHT22;21415;48.054;16.646;2022-08-19T03:13:25;28.30;35.70
35299;DHT22;21415;48.054;16.646;2022-08-19T03:15:51;28.20;35.80
35299;DHT22;21415;48.054;16.646;2022-08-19T03:18:17;28.20;35.50
35299;DHT22;21415;48.054;16.646;2022-08-19T03:20:43;28.10;35.70
35299;DHT22;21415;48.054;16.646;2022-08-19T03:23:09;28.10;36.00
35299;DHT22;21415;48.054;16.646;2022-08-19T03:25:39;28.00;36.00
35299;DHT22;21415;48.054;16.646;2022-08-19T03:28:06;28.00;36.40
35299;DHT22;21415;48.054;16.646;2022-08-19T03:30:32;27.90;36.30
35299;DHT22;21415;48.054;16.646;2022-08-19T03:32:58;27.90;36.80
35299;DHT22;21415;48.054;16.646;2022-08-19T03:35:24;27.90;36.60
35299;DHT22;21415;48.054;16.646;2022-08-19T03:37:49;27.90;37.00
35299;DHT22;21415;48.054;16.646;2022-08-19T03:40:16;27.80;37.00
35299;DHT22;21415;48.054;16.646;2022-08-19T03:42:41;27.80;39.40
35299;DHT22;21415;48.054;16.646;2022-08-19T03:45:07;27.70;37.10
35299;DHT22;21415;48.054;16.646;2022-08-19T03:47:33;27.70;37.20
35299;DHT22;21415;48.054;16.646;2022-08-19T03:49:59;27.70;37.40
35299;DHT22;21415;48.054;16.646;2022-08-19T03:52:24;27.70;37.30
35299;DHT22;21415;48.054;16.646;2022-08-19T03:54:50;27.70;37.20
35299;DHT22;21415;48.054;16.646;2022-08-19T03:57:16;27.60;37.30
35299;DHT22;21415;48.054;16.646;2022-08-19T03:59:42;27.70;37.10
35299;DHT22;21415;48.054;16.646;2022-08-19T04:02:10;27.70;37.20
35299;DHT22;21415;48.054;16.646;2022-08-19T04:04:37;27.70;37.00
35299;DHT22;21415;48.054;16.646;2022-08-19T04:07:03;27.70;37.20
35299;DHT22;21415;48.054;16.646;2022-08-19T04:09:28;27.70;37.10
35299;DHT22;21415;48.054;16.646;2022-08-19T04:11:54;27.80;37.10
35299;DHT22;21415;48.054;16.646;2022-08-19T04:14:21;27.80;37.10
35299;DHT22;21415;48.054;16.646;2022-08-19T04:16:48;27.80;37.20
35299;DHT22;21415;48.054;16.646;2022-08-19T04:19:13;27.80;37.20
35299;DHT22;21415;48.054;16.646;2022-08-19T04:21:39;27.80;37.20
35299;DHT22;21415;48.054;16.646;2022-08-19T04:24:05;27.80;37.20
35299;DHT22;21415;48.054;16.646;2022-08-19T04:26:32;27.80;37.50
35299;DHT22;21415;48.054;16.646;2022-08-19T04:28:59;27.80;37.40
35299;DHT22;21415;48.054;16.646;2022-08-19T04:31:25;27.80;37.40
35299;DHT22;21415;48.054;16.646;2022-08-19T04:33:52;27.90;37.50
35299;DHT22;21415;48.054;16.646;2022-08-19T04:36:22;27.90;37.50
35299;DHT22;21415;48.054;16.646;2022-08-19T04:38:48;27.90;37.60
35299;DHT22;21415;48.054;16.646;2022-08-19T04:41:15;27.90;37.70
35299;DHT22;21415;48.054;16.646;2022-08-19T04:43:59;28.00;38.10
35299;DHT22;21415;48.054;16.646;2022-08-19T04:46:25;28.10;38.00
35299;DHT22;21415;48.054;16.646;2022-08-19T04:48:51;28.10;38.00
35299;DHT22;21415;48.054;16.646;2022-08-19T04:51:17;28.20;38.10
35299;DHT22;21415;48.054;16.646;2022-08-19T04:53:43;28.30;38.20
35299;DHT22;21415;48.054;16.646;2022-08-19T04:56:10;28.40;38.30
35299;DHT22;21415;48.054;16.646;2022-08-19T04:58:36;28.40;38.20
35299;DHT22;21415;48.054;16.646;2022-08-19T05:01:03;28.50;38.30
35299;DHT22;21415;48.054;16.646;2022-08-19T05:03:29;28.60;38.50
35299;DHT22;21415;48.054;16.646;2022-08-19T05:06:04;28.70;38.60
35299;DHT22;21415;48.054;16.646;2022-08-19T05:08:29;28.70;38.60
35299;DHT22;21415;48.054;16.646;2022-08-19T05:10:56;28.80;38.50
35299;DHT22;21415;48.054;16.646;2022-08-19T05:13:22;28.90;38.60
35299;DHT22;21415;48.054;16.646;2022-08-19T05:15:55;29.00;38.60
35299;DHT22;21415;48.054;16.646;2022-08-19T05:18:21;29.00;38.60
35299;DHT22;21415;48.054;16.646;2022-08-19T05:21:07;29.10;38.70
35299;DHT22;21415;48.054;16.646;2022-08-19T05:23:51;29.20;38.70
35299;DHT22;21415;48.054;16.646;2022-08-19T05:26:17;29.20;38.70
35299;DHT22;21415;48.054;16.646;2022-08-19T05:28:43;29.30;38.80
35299;DHT22;21415;48.054;16.646;2022-08-19T05:31:08;29.30;38.70
35299;DHT22;21415;48.054;16.646;2022-08-19T05:33:34;29.40;38.90
35299;DHT22;21415;48.054;16.646;2022-08-19T05:36:01;29.50;38.80
35299;DHT22;21415;48.054;16.646;2022-08-19T05:38:26;29.50;38.70
35299;DHT22;21415;48.054;16.646;2022-08-19T05:40:52;29.50;38.70
35299;DHT22;21415;48.054;16.646;2022-08-19T05:43:18;29.60;38.70
35299;DHT22;21415;48.054;16.646;2022-08-19T05:45:45;29.60;38.60
35299;DHT22;21415;48.054;16.646;2022-08-19T05:48:10;29.60;38.70
35299;DHT22;21415;48.054;16.646;2022-08-19T05:50:37;29.60;38.70
35299;DHT22;21415;48.054;16.646;2022-08-19T05:53:03;29.70;38.70
35299;DHT22;21415;48.054;16.646;2022-08-19T05:55:28;29.80;38.80
35299;DHT22;21415;48.054;16.646;2022-08-19T05:57:54;29.70;38.60
35299;DHT22;21415;48.054;16.646;2022-08-19T06:00:19;29.70;38.60
35299;DHT22;21415;48.054;16.646;2022-08-19T06:02:45;29.70;38.60
35299;DHT22;21415;48.054;16.646;2022-08-19T06:05:11;29.70;38.80
35299;DHT22;21415;48.054;16.646;2022-08-19T06:07:37;29.70;39.10
35299;DHT22;21415;48.054;16.646;2022-08-19T06:10:04;29.70;39.00
35299;DHT22;21415;48.054;16.646;2022-08-19T06:12:30;29.70;39.20
35299;DHT22;21415;48.054;16.646;2022-08-19T06:15:00;29.70;39.10
35299;DHT22;21415;48.054;16.646;2022-08-19T06:17:26;29.70;39.20
35299;DHT22;21415;48.054;16.646;2022-08-19T06:19:52;29.70;39.20
35299;DHT22;21415;48.054;16.646;2022-08-19T06:22:17;29.70;39.30
35299;DHT22;21415;48.054;16.646;2022-08-19T06:24:43;29.70;39.40
35299;DHT22;21415;48.054;16.646;2022-08-19T06:27:09;29.80;39.50
35299;DHT22;21415;48.054;16.646;2022-08-19T06:29:35;29.80;39.50
35299;DHT22;21415;48.054;16.646;2022-08-19T06:32:01;29.90;39.90
35299;DHT22;21415;48.054;16.646;2022-08-19T06:34:29;29.90;39.60
35299;DHT22;21415;48.054;16.646;2022-08-19T06:36:55;30.00;39.70
35299;DHT22;21415;48.054;16.646;2022-08-19T06:39:22;30.00;39.60
35299;DHT22;21415;48.054;16.646;2022-08-19T06:41:50;30.10;39.70
35299;DHT22;21415;48.054;16.646;2022-08-19T06:44:17;30.10;39.80
35299;DHT22;21415;48.054;16.646;2022-08-19T06:46:42;30.20;39.70
35299;DHT22;21415;48.054;16.646;2022-08-19T06:49:08;30.30;39.90
35299;DHT22;21415;48.054;16.646;2022-08-19T06:51:35;30.30;39.70
35299;DHT22;21415;48.054;16.646;2022-08-19T06:54:01;30.30;39.60
35299;DHT22;21415;48.054;16.646;2022-08-19T06:56:28;30.40;39.60
35299;DHT22;21415;48.054;16.646;2022-08-19T06:59:09;30.50;39.70
35299;DHT22;21415;48.054;16.646;2022-08-19T07:01:40;30.50;39.60
35299;DHT22;21415;48.054;16.646;2022-08-19T07:04:06;30.60;39.60
35299;DHT22;21415;48.054;16.646;2022-08-19T07:06:34;30.70;39.70
35299;DHT22;21415;48.054;16.646;2022-08-19T07:08:59;30.70;39.70
35299;DHT22;21415;48.054;16.646;2022-08-19T07:11:25;30.90;39.80
35299;DHT22;21415;48.054;16.646;2022-08-19T07:13:51;30.90;39.70
35299;DHT22;21415;48.054;16.646;2022-08-19T07:16:19;31.00;40.00
35299;DHT22;21415;48.054;16.646;2022-08-19T07:18:48;31.10;39.60
35299;DHT22;21415;48.054;16.646;2022-08-19T07:21:17;31.10;39.60
35299;DHT22;21415;48.054;16.646;2022-08-19T07:23:44;31.20;39.60
35299;DHT22;21415;48.054;16.646;2022-08-19T07:26:12;31.30;39.60
35299;DHT22;21415;48.054;16.646;2022-08-19T07:28:42;31.40;39.50
35299;DHT22;21415;48.054;16.646;2022-08-19T07:31:27;31.40;39.40
35299;DHT22;21415;48.054;16.646;2022-08-19T07:33:54;31.50;39.40
35299;DHT22;21415;48.054;16.646;2022-08-19T07:36:24;31.50;39.40
35299;DHT22;21415;48.054;16.646;2022-08-19T07:38:51;31.60;39.50
35299;DHT22;21415;48.054;16.646;2022-08-19T07:41:20;31.50;39.30
35299;DHT22;21415;48.054;16.646;2022-08-19T07:43:47;31.60;39.30
35299;DHT22;21415;48.054;16.646;2022-08-19T07:46:13;31.80;39.40
35299;DHT22;21415;48.054;16.646;2022-08-19T07:48:40;31.90;39.40
35299;DHT22;21415;48.054;16.646;2022-08-19T07:51:06;31.90;39.40
35299;DHT22;21415;48.054;16.646;2022-08-19T07:53:33;32.00;39.30
35299;DHT22;21415;48.054;16.646;2022-08-19T07:55:59;32.10;39.40
35299;DHT22;21415;48.054;16.646;2022-08-19T07:58:30;32.20;39.30
35299;DHT22;21415;48.054;16.646;2022-08-19T08:00:56;32.20;39.30
35299;DHT22;21415;48.054;16.646;2022-08-19T08:03:22;32.30;39.10
35299;DHT22;21415;48.054;16.646;2022-08-19T08:06:11;32.40;39.20
35299;DHT22;21415;48.054;16.646;2022-08-19T08:08:56;32.50;39.20
35299;DHT22;21415;48.054;16.646;2022-08-19T08:11:40;32.60;39.10
35299;DHT22;21415;48.054;16.646;2022-08-19T08:14:07;32.70;39.00
35299;DHT22;21415;48.054;16.646;2022-08-19T08:16:33;32.80;39.00
35299;DHT22;21415;48.054;16.646;2022-08-19T08:18:59;32.80;39.00
35299;DHT22;21415;48.054;16.646;2022-08-19T08:21:25;32.90;38.90
35299;DHT22;21415;48.054;16.646;2022-08-19T08:23:51;33.00;38.90
35299;DHT22;21415;48.054;16.646;2022-08-19T08:26:20;33.00;38.80
35299;DHT22;21415;48.054;16.646;2022-08-19T08:28:46;33.10;38.60
35299;DHT22;21415;48.054;16.646;2022-08-19T08:31:12;33.10;38.60
35299;DHT22;21415;48.054;16.646;2022-08-19T08:33:38;33.10;38.60
35299;DHT22;21415;48.054;16.646;2022-08-19T08:36:06;33.10;38.70
35299;DHT22;21415;48.054;16.646;2022-08-19T08:38:32;33.20;38.70
35299;DHT22;21415;48.054;16.646;2022-08-19T08:40:59;33.30;38.80
35299;DHT22;21415;48.054;16.646;2022-08-19T08:43:37;33.50;38.90
35299;DHT22;21415;48.054;16.646;2022-08-19T08:46:07;33.50;38.80
35299;DHT22;21415;48.054;16.646;2022-08-19T08:48:43;33.60;38.70
35299;DHT22;21415;48.054;16.646;2022-08-19T08:51:23;33.80;38.70
35299;DHT22;21415;48.054;16.646;2022-08-19T08:53:51;33.90;38.60
35299;DHT22;21415;48.054;16.646;2022-08-19T08:56:18;34.00;38.50
35299;DHT22;21415;48.054;16.646;2022-08-19T08:58:46;34.10;38.40
35299;DHT22;21415;48.054;16.646;2022-08-19T09:01:14;34.20;38.40
35299;DHT22;21415;48.054;16.646;2022-08-19T09:03:41;34.20;38.40
35299;DHT22;21415;48.054;16.646;2022-08-19T09:06:18;34.30;38.40
35299;DHT22;21415;48.054;16.646;2022-08-19T09:09:24;34.40;38.20
35299;DHT22;21415;48.054;16.646;2022-08-19T09:14:28;34.60;38.20
35299;DHT22;21415;48.054;16.646;2022-08-19T09:16:53;34.60;37.90
35299;DHT22;21415;48.054;16.646;2022-08-19T09:19:19;34.70;37.90
35299;DHT22;21415;48.054;16.646;2022-08-19T09:21:44;34.70;37.90
35299;DHT22;21415;48.054;16.646;2022-08-19T09:24:11;34.80;37.90
35299;DHT22;21415;48.054;16.646;2022-08-19T09:26:36;34.80;37.80
35299;DHT22;21415;48.054;16.646;2022-08-19T09:29:02;34.80;37.60
35299;DHT22;21415;48.054;16.646;2022-08-19T09:31:30;34.90;37.60
35299;DHT22;21415;48.054;16.646;2022-08-19T09:33:58;34.90;37.50
35299;DHT22;21415;48.054;16.646;2022-08-19T09:36:25;34.90;37.40
35299;DHT22;21415;48.054;16.646;2022-08-19T09:38:52;34.90;37.50
35299;DHT22;21415;48.054;16.646;2022-08-19T09:41:19;35.00;37.50
35299;DHT22;21415;48.054;16.646;2022-08-19T09:43:46;35.00;37.40
35299;DHT22;21415;48.054;16.646;2022-08-19T09:46:13;35.00;37.20
35299;DHT22;21415;48.054;16.646;2022-08-19T09:48:39;35.00;37.10
35299;DHT22;21415;48.054;16.646;2022-08-19T09:51:06;35.00;37.10
35299;DHT22;21415;48.054;16.646;2022-08-19T09:53:33;35.10;37.10
35299;DHT22;21415;48.054;16.646;2022-08-19T09:55:59;35.10;37.20
35299;DHT22;21415;48.054;16.646;2022-08-19T09:58:25;35.10;37.10
35299;DHT22;21415;48.054;16.646;2022-08-19T10:00:56;35.10;37.20
35299;DHT22;21415;48.054;16.646;2022-08-19T10:03:22;35.20;37.20
35299;DHT22;21415;48.054;16.646;2022-08-19T10:05:48;35.20;37.20
35299;DHT22;21415;48.054;16.646;2022-08-19T10:08:17;35.30;37.30
35299;DHT22;21415;48.054;16.646;2022-08-19T10:10:43;35.40;37.20
35299;DHT22;21415;48.054;16.646;2022-08-19T10:13:09;35.40;37.00
35299;DHT22;21415;48.054;16.646;2022-08-19T10:15:35;35.60;37.20
35299;DHT22;21415;48.054;16.646;2022-08-19T10:18:00;35.60;37.00
35299;DHT22;21415;48.054;16.646;2022-08-19T10:20:26;35.70;37.00
35299;DHT22;21415;48.054;16.646;2022-08-19T10:22:52;35.70;36.90
35299;DHT22;21415;48.054;16.646;2022-08-19T10:25:18;35.80;36.90
35299;DHT22;21415;48.054;16.646;2022-08-19T10:27:43;35.80;36.80
35299;DHT22;21415;48.054;16.646;2022-08-19T10:30:09;35.90;36.90
35299;DHT22;21415;48.054;16.646;2022-08-19T10:32:35;36.00;36.90
35299;DHT22;21415;48.054;16.646;2022-08-19T10:35:01;36.10;36.90
35299;DHT22;21415;48.054;16.646;2022-08-19T10:37:27;36.10;36.30
35299;DHT22;21415;48.054;16.646;2022-08-19T10:39:56;36.20;36.50
35299;DHT22;21415;48.054;16.646;2022-08-19T10:42:21;36.30;37.10
35299;DHT22;21415;48.054;16.646;2022-08-19T10:44:47;36.30;36.50
35299;DHT22;21415;48.054;16.646;2022-08-19T10:47:13;36.40;36.50
35299;DHT22;21415;48.054;16.646;2022-08-19T10:49:39;36.50;36.50
35299;DHT22;21415;48.054;16.646;2022-08-19T10:52:25;36.50;36.50
35299;DHT22;21415;48.054;16.646;2022-08-19T10:55:00;36.60;36.40
35299;DHT22;21415;48.054;16.646;2022-08-19T10:57:44;36.60;36.30
35299;DHT22;21415;48.054;16.646;2022-08-19T11:00:10;36.70;36.20
35299;DHT22;21415;48.054;16.646;2022-08-19T11:02:36;36.70;36.00
35299;DHT22;21415;48.054;16.646;2022-08-19T11:05:02;36.70;35.90
35299;DHT22;21415;48.054;16.646;2022-08-19T11:07:28;36.60;35.80
35299;DHT22;21415;48.054;16.646;2022-08-19T11:09:53;36.60;35.80
35299;DHT22;21415;48.054;16.646;2022-08-19T11:12:19;36.50;35.90
35299;DHT22;21415;48.054;16.646;2022-08-19T11:14:45;36.50;36.10
35299;DHT22;21415;48.054;16.646;2022-08-19T11:17:10;36.40;36.30
35299;DHT22;21415;48.054;16.646;2022-08-19T11:19:39;36.30;36.40
35299;DHT22;21415;48.054;16.646;2022-08-19T11:22:07;36.30;36.70
35299;DHT22;21415;48.054;16.646;2022-08-19T11:24:33;36.20;36.80
35299;DHT22;21415;48.054;16.646;2022-08-19T11:27:00;36.10;37.10
35299;DHT22;21415;48.054;16.646;2022-08-19T11:29:27;36.00;37.20
35299;DHT22;21415;48.054;16.646;2022-08-19T11:31:54;36.00;37.30
35299;DHT22;21415;48.054;16.646;2022-08-19T11:34:21;36.00;37.40
35299;DHT22;21415;48.054;16.646;2022-08-19T11:36:47;36.00;37.50
35299;DHT22;21415;48.054;16.646;2022-08-19T11:39:14;36.00;37.60
35299;DHT22;21415;48.054;16.646;2022-08-19T11:41:40;36.00;37.50
35299;DHT22;21415;48.054;16.646;2022-08-19T11:44:07;36.00;37.50
35299;DHT22;21415;48.054;16.646;2022-08-19T11:46:36;36.10;37.50
35299;DHT22;21415;48.054;16.646;2022-08-19T11:49:02;36.10;37.50
35299;DHT22;21415;48.054;16.646;2022-08-19T11:51:29;36.20;37.60
35299;DHT22;21415;48.054;16.646;2022-08-19T11:53:55;36.30;37.80
35299;DHT22;21415;48.054;16.646;2022-08-19T11:56:21;36.40;37.80
35299;DHT22;21415;48.054;16.646;2022-08-19T11:58:47;36.40;37.70
35299;DHT22;21415;48.054;16.646;2022-08-19T12:01:14;36.50;37.60
35299;DHT22;21415;48.054;16.646;2022-08-19T12:03:41;36.60;37.50
35299;DHT22;21415;48.054;16.646;2022-08-19T12:06:08;36.60;37.30
35299;DHT22;21415;48.054;16.646;2022-08-19T12:08:35;36.70;37.20
35299;DHT22;21415;48.054;16.646;2022-08-19T12:11:00;36.70;37.00
35299;DHT22;21415;48.054;16.646;2022-08-19T12:13:27;36.70;36.90
35299;DHT22;21415;48.054;16.646;2022-08-19T12:15:53;36.80;37.50
35299;DHT22;21415;48.054;16.646;2022-08-19T12:18:19;36.90;36.90
35299;DHT22;21415;48.054;16.646;2022-08-19T12:20:45;36.90;36.80
35299;DHT22;21415;48.054;16.646;2022-08-19T12:23:11;36.90;36.50
35299;DHT22;21415;48.054;16.646;2022-08-19T12:25:37;36.90;36.50
35299;DHT22;21415;48.054;16.646;2022-08-19T12:28:09;36.80;36.40
35299;DHT22;21415;48.054;16.646;2022-08-19T12:30:37;36.80;36.40
35299;DHT22;21415;48.054;16.646;2022-08-19T12:33:04;36.80;36.30
35299;DHT22;21415;48.054;16.646;2022-08-19T12:35:30;36.80;36.10
35299;DHT22;21415;48.054;16.646;2022-08-19T12:37:56;36.70;36.00
35299;DHT22;21415;48.054;16.646;2022-08-19T12:40:21;36.70;36.00
35299;DHT22;21415;48.054;16.646;2022-08-19T12:42:47;36.60;36.00
35299;DHT22;21415;48.054;16.646;2022-08-19T12:45:15;36.60;36.00
35299;DHT22;21415;48.054;16.646;2022-08-19T12:47:41;36.50;35.90
35299;DHT22;21415;48.054;16.646;2022-08-19T12:50:07;36.40;35.80
35299;DHT22;21415;48.054;16.646;2022-08-19T12:52:34;36.40;35.90
35299;DHT22;21415;48.054;16.646;2022-08-19T12:55:03;36.30;35.90
35299;DHT22;21415;48.054;16.646;2022-08-19T12:57:30;36.20;35.90
35299;DHT22;21415;48.054;16.646;2022-08-19T12:59:59;36.10;36.00
35299;DHT22;21415;48.054;16.646;2022-08-19T13:02:25;36.10;36.10
35299;DHT22;21415;48.054;16.646;2022-08-19T13:04:51;36.00;36.10
35299;DHT22;21415;48.054;16.646;2022-08-19T13:07:17;35.90;36.10
35299;DHT22;21415;48.054;16.646;2022-08-19T13:09:43;35.90;36.10
35299;DHT22;21415;48.054;16.646;2022-08-19T13:12:08;35.90;36.20
35299;DHT22;21415;48.054;16.646;2022-08-19T13:14:38;35.70;36.00
35299;DHT22;21415;48.054;16.646;2022-08-19T13:17:05;35.70;36.10
35299;DHT22;21415;48.054;16.646;2022-08-19T13:19:31;35.60;36.00
35299;DHT22;21415;48.054;16.646;2022-08-19T13:21:57;35.50;36.00
35299;DHT22;21415;48.054;16.646;2022-08-19T13:24:24;35.40;35.90
35299;DHT22;21415;48.054;16.646;2022-08-19T13:26:49;35.40;36.00
35299;DHT22;21415;48.054;16.646;2022-08-19T13:29:15;35.30;36.50
35299;DHT22;21415;48.054;16.646;2022-08-19T13:31:59;35.20;35.90
35299;DHT22;21415;48.054;16.646;2022-08-19T13:34:43;35.10;36.00
35299;DHT22;21415;48.054;16.646;2022-08-19T13:37:12;35.00;36.20
35299;DHT22;21415;48.054;16.646;2022-08-19T13:39:37;34.90;36.40
35299;DHT22;21415;48.054;16.646;2022-08-19T13:42:03;34.80;36.50
35299;DHT22;21415;48.054;16.646;2022-08-19T13:44:30;34.80;36.70
35299;DHT22;21415;48.054;16.646;2022-08-19T13:47:02;34.70;36.80
35299;DHT22;21415;48.054;16.646;2022-08-19T13:49:32;34.60;36.80
35299;DHT22;21415;48.054;16.646;2022-08-19T13:52:01;34.60;37.00
35299;DHT22;21415;48.054;16.646;2022-08-19T13:54:27;34.40;36.90
35299;DHT22;21415;48.054;16.646;2022-08-19T13:56:53;34.40;37.10
35299;DHT22;21415;48.054;16.646;2022-08-19T13:59:19;34.30;37.00
35299;DHT22;21415;48.054;16.646;2022-08-19T14:01:44;34.20;37.10
35299;DHT22;21415;48.054;16.646;2022-08-19T14:04:10;34.10;37.10
35299;DHT22;21415;48.054;16.646;2022-08-19T14:06:36;34.10;37.30
35299;DHT22;21415;48.054;16.646;2022-08-19T14:09:01;33.90;37.20
35299;DHT22;21415;48.054;16.646;2022-08-19T14:11:28;33.90;37.50
35299;DHT22;21415;48.054;16.646;2022-08-19T14:13:54;33.80;37.50
35299;DHT22;21415;48.054;16.646;2022-08-19T14:16:19;33.80;38.00
35299;DHT22;21415;48.054;16.646;2022-08-19T14:18:47;33.70;37.90
35299;DHT22;21415;48.054;16.646;2022-08-19T14:21:16;33.70;38.10
35299;DHT22;21415;48.054;16.646;2022-08-19T14:23:43;33.70;38.10
35299;DHT22;21415;48.054;16.646;2022-08-19T14:26:11;33.70;38.10
35299;DHT22;21415;48.054;16.646;2022-08-19T14:28:37;33.70;38.10
35299;DHT22;21415;48.054;16.646;2022-08-19T14:31:04;33.70;38.00
35299;DHT22;21415;48.054;16.646;2022-08-19T14:33:30;33.70;38.00
35299;DHT22;21415;48.054;16.646;2022-08-19T14:35:57;33.70;38.00
35299;DHT22;21415;48.054;16.646;2022-08-19T14:38:23;33.70;38.00
35299;DHT22;21415;48.054;16.646;2022-08-19T14:40:48;33.70;38.00
35299;DHT22;21415;48.054;16.646;2022-08-19T14:43:14;33.70;38.00
35299;DHT22;21415;48.054;16.646;2022-08-19T14:45:40;33.80;37.90
35299;DHT22;21415;48.054;16.646;2022-08-19T14:48:06;33.80;37.90
35299;DHT22;21415;48.054;16.646;2022-08-19T14:50:33;33.80;37.70
35299;DHT22;21415;48.054;16.646;2022-08-19T14:53:00;33.80;37.50
35299;DHT22;21415;48.054;16.646;2022-08-19T14:55:29;33.90;37.50
35299;DHT22;21415;48.054;16.646;2022-08-19T14:57:55;33.90;37.30
35299;DHT22;21415;48.054;16.646;2022-08-19T15:00:21;33.90;37.20
35299;DHT22;21415;48.054;16.646;2022-08-19T15:02:48;34.00;37.20
35299;DHT22;21415;48.054;16.646;2022-08-19T15:05:14;34.10;37.10
35299;DHT22;21415;48.054;16.646;2022-08-19T15:07:40;34.10;37.10
35299;DHT22;21415;48.054;16.646;2022-08-19T15:10:06;34.10;36.90
35299;DHT22;21415;48.054;16.646;2022-08-19T15:12:33;34.20;37.00
35299;DHT22;21415;48.054;16.646;2022-08-19T15:14:59;34.20;37.00
35299;DHT22;21415;48.054;16.646;2022-08-19T15:17:25;34.20;36.90
35299;DHT22;21415;48.054;16.646;2022-08-19T15:19:51;34.30;36.90
35299;DHT22;21415;48.054;16.646;2022-08-19T15:22:16;34.40;36.80